sensor_id;sensor_type;location;lat;lon;timestamp;P1;durP1;ratioP1;P2;durP2;ratioP2
57828;SDS011;43657;52.698;6.314;2023-11-19T00:02:08;175.27;;;66.93;;
57828;SDS011;43657;52.698;6.314;2023-11-19T00:04:42;346.52;;;86.70;;
57828;SDS011;43657;52.698;6.314;2023-11-19T00:07:07;358.30;;;85.57;;
57828;SDS011;43657;52.698;6.314;2023-11-19T00:09:35;383.15;;;86.05;;
57828;SDS011;43657;52.698;6.314;2023-11-19T00:12:04;227.85;;;69.38;;
57828;SDS011;43657;52.698;6.314;2023-11-19T00:14:31;326.48;;;80.70;;
57828;SDS011;43657;52.698;6.314;2023-11-19T00:16:57;219.13;;;66.05;;
57828;SDS011;43657;52.698;6.314;2023-11-19T00:19:26;243.70;;;68.10;;
57828;SDS011;43657;52.698;6.314;2023-11-19T00:21:55;299.35;;;76.28;;
57828;SDS011;43657;52.698;6.314;2023-11-19T00:24:32;312.88;;;75.03;;
57828;SDS011;43657;52.698;6.314;2023-11-19T00:27:30;259.02;;;70.40;;
57828;SDS011;43657;52.698;6.314;2023-11-19T07:19:35;69.47;;;12.40;;
57828;SDS011;43657;52.698;6.314;2023-11-19T07:22:07;70.63;;;11.98;;
57828;SDS011;43657;52.698;6.314;2023-11-19T07:24:45;78.78;;;12.23;;
57828;SDS011;43657;52.698;6.314;2023-11-19T07:27:11;69.03;;;11.52;;
57828;SDS011;43657;52.698;6.314;2023-11-19T07:29:37;76.90;;;12.02;;
57828;SDS011;43657;52.698;6.314;2023-11-19T07:32:03;77.70;;;11.85;;
57828;SDS011;43657;52.698;6.314;2023-11-19T07:34:36;79.75;;;12.50;;
57828;SDS011;43657;52.698;6.314;2023-11-19T07:37:24;65.45;;;10.63;;
57828;SDS011;43657;52.698;6.314;2023-11-19T07:40:21;84.07;;;12.65;;
57828;SDS011;43657;52.698;6.314;2023-11-19T07:43:05;78.78;;;11.57;;
57828;SDS011;43657;52.698;6.314;2023-11-19T07:45:35;72.10;;;12.45;;
57828;SDS011;43657;52.698;6.314;2023-11-19T07:48:07;80.45;;;11.98;;
57828;SDS011;43657;52.698;6.314;2023-11-19T07:50:33;62.95;;;10.77;;
57828;SDS011;43657;52.698;6.314;2023-11-19T07:53:15;79.43;;;12.23;;
57828;SDS011;43657;52.698;6.314;2023-11-19T07:55:44;72.13;;;11.55;;
57828;SDS011;43657;52.698;6.314;2023-11-19T07:58:15;69.03;;;11.30;;
57828;SDS011;43657;52.698;6.314;2023-11-19T08:00:41;74.00;;;12.18;;
57828;SDS011;43657;52.698;6.314;2023-11-19T08:07:07;68.55;;;10.77;;
57828;SDS011;43657;52.698;6.314;2023-11-19T08:09:53;72.20;;;11.98;;
57828;SDS011;43657;52.698;6.314;2023-11-19T08:16:22;66.78;;;12.95;;
57828;SDS011;43657;52.698;6.314;2023-11-19T08:18:58;82.15;;;12.73;;
57828;SDS011;43657;52.698;6.314;2023-11-19T08:21:24;95.00;;;14.45;;
57828;SDS011;43657;52.698;6.314;2023-11-19T08:23:52;103.57;;;15.60;;
57828;SDS011;43657;52.698;6.314;2023-11-19T08:26:17;94.13;;;14.75;;
57828;SDS011;43657;52.698;6.314;2023-11-19T08:28:43;99.43;;;14.18;;
57828;SDS011;43657;52.698;6.314;2023-11-19T08:31:12;98.38;;;14.15;;
57828;SDS011;43657;52.698;6.314;2023-11-19T08:33:38;101.90;;;14.40;;
57828;SDS011;43657;52.698;6.314;2023-11-19T08:36:04;94.65;;;14.10;;
57828;SDS011;43657;52.698;6.314;2023-11-19T08:38:30;99.88;;;14.40;;
57828;SDS011;43657;52.698;6.314;2023-11-19T08:40:55;81.30;;;13.38;;
57828;SDS011;43657;52.698;6.314;2023-11-19T08:43:25;103.10;;;13.95;;
57828;SDS011;43657;52.698;6.314;2023-11-19T08:45:51;87.80;;;12.65;;
57828;SDS011;43657;52.698;6.314;2023-11-19T08:48:17;92.43;;;13.10;;
57828;SDS011;43657;52.698;6.314;2023-11-19T08:50:42;88.50;;;13.38;;
57828;SDS011;43657;52.698;6.314;2023-11-19T08:53:08;78.65;;;12.77;;
57828;SDS011;43657;52.698;6.314;2023-11-19T08:55:34;101.65;;;14.57;;
57828;SDS011;43657;52.698;6.314;2023-11-19T08:57:59;76.03;;;11.50;;
57828;SDS011;43657;52.698;6.314;2023-11-19T09:00:26;94.38;;;13.77;;
57828;SDS011;43657;52.698;6.314;2023-11-19T09:02:51;82.03;;;13.00;;
57828;SDS011;43657;52.698;6.314;2023-11-19T09:05:17;89.47;;;12.90;;
57828;SDS011;43657;52.698;6.314;2023-11-19T09:07:43;106.68;;;14.00;;
57828;SDS011;43657;52.698;6.314;2023-11-19T09:14:11;69.38;;;11.95;;
57828;SDS011;43657;52.698;6.314;2023-11-19T09:16:40;88.65;;;11.93;;
57828;SDS011;43657;52.698;6.314;2023-11-19T09:19:05;77.57;;;12.93;;
57828;SDS011;43657;52.698;6.314;2023-11-19T09:21:31;69.13;;;11.95;;
57828;SDS011;43657;52.698;6.314;2023-11-19T09:24:04;73.47;;;10.88;;
57828;SDS011;43657;52.698;6.314;2023-11-19T09:26:33;80.80;;;12.23;;
57828;SDS011;43657;52.698;6.314;2023-11-19T09:29:01;72.22;;;12.20;;
57828;SDS011;43657;52.698;6.314;2023-11-19T09:31:26;79.85;;;12.20;;
57828;SDS011;43657;52.698;6.314;2023-11-19T09:33:52;73.68;;;11.18;;
57828;SDS011;43657;52.698;6.314;2023-11-19T09:36:18;65.60;;;10.90;;
57828;SDS011;43657;52.698;6.314;2023-11-19T09:38:44;72.45;;;11.00;;
57828;SDS011;43657;52.698;6.314;2023-11-19T09:41:10;64.28;;;10.10;;
57828;SDS011;43657;52.698;6.314;2023-11-19T09:43:39;59.65;;;10.75;;
57828;SDS011;43657;52.698;6.314;2023-11-19T09:46:05;70.15;;;11.10;;
57828;SDS011;43657;52.698;6.314;2023-11-19T09:48:35;124.82;;;13.55;;
57828;SDS011;43657;52.698;6.314;2023-11-19T09:51:05;63.45;;;10.13;;
57828;SDS011;43657;52.698;6.314;2023-11-19T09:53:32;78.90;;;11.23;;
57828;SDS011;43657;52.698;6.314;2023-11-19T09:56:00;82.15;;;11.18;;
57828;SDS011;43657;52.698;6.314;2023-11-19T09:58:28;75.82;;;11.52;;
57828;SDS011;43657;52.698;6.314;2023-11-19T10:00:54;69.15;;;10.43;;
57828;SDS011;43657;52.698;6.314;2023-11-19T10:03:20;60.00;;;9.80;;
57828;SDS011;43657;52.698;6.314;2023-11-19T10:05:48;82.45;;;11.82;;
57828;SDS011;43657;52.698;6.314;2023-11-19T10:08:14;62.58;;;11.45;;
57828;SDS011;43657;52.698;6.314;2023-11-19T10:10:41;70.22;;;11.02;;
57828;SDS011;43657;52.698;6.314;2023-11-19T10:13:06;72.13;;;11.48;;
57828;SDS011;43657;52.698;6.314;2023-11-19T10:15:35;58.47;;;10.27;;
57828;SDS011;43657;52.698;6.314;2023-11-19T10:18:02;80.65;;;11.80;;
57828;SDS011;43657;52.698;6.314;2023-11-19T10:20:35;73.05;;;12.63;;
57828;SDS011;43657;52.698;6.314;2023-11-19T10:23:05;69.20;;;10.80;;
57828;SDS011;43657;52.698;6.314;2023-11-19T10:25:31;67.35;;;11.20;;
57828;SDS011;43657;52.698;6.314;2023-11-19T10:27:58;61.03;;;10.43;;
57828;SDS011;43657;52.698;6.314;2023-11-19T10:30:24;66.60;;;12.05;;
57828;SDS011;43657;52.698;6.314;2023-11-19T10:35:36;58.00;;;11.15;;
57828;SDS011;43657;52.698;6.314;2023-11-19T10:38:17;76.90;;;12.23;;
57828;SDS011;43657;52.698;6.314;2023-11-19T10:40:43;74.65;;;12.25;;
57828;SDS011;43657;52.698;6.314;2023-11-19T10:43:09;61.17;;;11.30;;
57828;SDS011;43657;52.698;6.314;2023-11-19T10:45:35;73.28;;;11.95;;
57828;SDS011;43657;52.698;6.314;2023-11-19T10:48:02;62.72;;;10.55;;
57828;SDS011;43657;52.698;6.314;2023-11-19T10:50:38;59.13;;;11.05;;
57828;SDS011;43657;52.698;6.314;2023-11-19T10:53:06;81.88;;;12.30;;
57828;SDS011;43657;52.698;6.314;2023-11-19T10:55:34;59.63;;;10.85;;
57828;SDS011;43657;52.698;6.314;2023-11-19T10:58:10;76.45;;;12.15;;
57828;SDS011;43657;52.698;6.314;2023-11-19T11:00:47;68.65;;;11.43;;
57828;SDS011;43657;52.698;6.314;2023-11-19T11:03:18;68.47;;;12.65;;
57828;SDS011;43657;52.698;6.314;2023-11-19T11:08:16;87.50;;;12.88;;
57828;SDS011;43657;52.698;6.314;2023-11-19T11:10:43;88.80;;;12.57;;
57828;SDS011;43657;52.698;6.314;2023-11-19T11:13:13;91.07;;;13.20;;
57828;SDS011;43657;52.698;6.314;2023-11-19T11:15:39;87.03;;;12.13;;
57828;SDS011;43657;52.698;6.314;2023-11-19T11:18:08;84.68;;;12.32;;
57828;SDS011;43657;52.698;6.314;2023-11-19T11:20:34;82.68;;;13.00;;
57828;SDS011;43657;52.698;6.314;2023-11-19T11:23:09;82.63;;;12.65;;
57828;SDS011;43657;52.698;6.314;2023-11-19T11:25:40;84.85;;;12.43;;
57828;SDS011;43657;52.698;6.314;2023-11-19T11:28:35;73.75;;;11.75;;
57828;SDS011;43657;52.698;6.314;2023-11-19T11:31:09;105.20;;;13.88;;
57828;SDS011;43657;52.698;6.314;2023-11-19T11:36:44;78.25;;;12.40;;
57828;SDS011;43657;52.698;6.314;2023-11-19T11:39:20;102.63;;;14.00;;
57828;SDS011;43657;52.698;6.314;2023-11-19T11:41:47;118.65;;;15.30;;
57828;SDS011;43657;52.698;6.314;2023-11-19T11:44:12;134.25;;;17.75;;
57828;SDS011;43657;52.698;6.314;2023-11-19T11:49:07;119.00;;;20.50;;
57828;SDS011;43657;52.698;6.314;2023-11-19T11:54:08;102.10;;;16.50;;
57828;SDS011;43657;52.698;6.314;2023-11-19T11:56:36;105.60;;;14.63;;
57828;SDS011;43657;52.698;6.314;2023-11-19T11:59:03;114.53;;;13.75;;
57828;SDS011;43657;52.698;6.314;2023-11-19T12:01:32;124.40;;;15.65;;
57828;SDS011;43657;52.698;6.314;2023-11-19T12:03:58;122.38;;;16.80;;
57828;SDS011;43657;52.698;6.314;2023-11-19T12:06:23;147.23;;;17.90;;
57828;SDS011;43657;52.698;6.314;2023-11-19T12:08:51;115.45;;;16.05;;
57828;SDS011;43657;52.698;6.314;2023-11-19T12:11:17;98.43;;;14.85;;
57828;SDS011;43657;52.698;6.314;2023-11-19T12:14:02;84.45;;;14.55;;
57828;SDS011;43657;52.698;6.314;2023-11-19T12:16:28;100.13;;;14.60;;
57828;SDS011;43657;52.698;6.314;2023-11-19T12:18:55;89.05;;;12.93;;
57828;SDS011;43657;52.698;6.314;2023-11-19T12:21:30;70.47;;;11.23;;
57828;SDS011;43657;52.698;6.314;2023-11-19T12:23:57;59.55;;;10.50;;
57828;SDS011;43657;52.698;6.314;2023-11-19T12:26:35;56.97;;;9.43;;
57828;SDS011;43657;52.698;6.314;2023-11-19T12:29:03;66.30;;;8.65;;
57828;SDS011;43657;52.698;6.314;2023-11-19T12:31:29;48.53;;;8.52;;
57828;SDS011;43657;52.698;6.314;2023-11-19T12:33:55;59.17;;;8.70;;
57828;SDS011;43657;52.698;6.314;2023-11-19T12:36:21;66.55;;;9.52;;
57828;SDS011;43657;52.698;6.314;2023-11-19T12:38:47;59.05;;;10.15;;
57828;SDS011;43657;52.698;6.314;2023-11-19T12:41:12;68.03;;;9.43;;
57828;SDS011;43657;52.698;6.314;2023-11-19T12:43:42;60.83;;;9.20;;
57828;SDS011;43657;52.698;6.314;2023-11-19T12:46:18;60.58;;;9.25;;
57828;SDS011;43657;52.698;6.314;2023-11-19T12:48:45;55.88;;;9.00;;
57828;SDS011;43657;52.698;6.314;2023-11-19T12:51:12;69.40;;;9.40;;
57828;SDS011;43657;52.698;6.314;2023-11-19T12:53:48;54.72;;;8.75;;
57828;SDS011;43657;52.698;6.314;2023-11-19T12:56:15;58.47;;;8.75;;
57828;SDS011;43657;52.698;6.314;2023-11-19T12:58:40;57.17;;;9.75;;
57828;SDS011;43657;52.698;6.314;2023-11-19T13:01:08;53.80;;;8.10;;
57828;SDS011;43657;52.698;6.314;2023-11-19T13:03:38;60.58;;;8.98;;
57828;SDS011;43657;52.698;6.314;2023-11-19T13:06:08;73.28;;;9.05;;
57828;SDS011;43657;52.698;6.314;2023-11-19T13:08:37;55.53;;;9.15;;
57828;SDS011;43657;52.698;6.314;2023-11-19T13:11:04;53.08;;;8.25;;
57828;SDS011;43657;52.698;6.314;2023-11-19T13:13:31;52.25;;;8.13;;
57828;SDS011;43657;52.698;6.314;2023-11-19T13:16:03;54.10;;;8.57;;
57828;SDS011;43657;52.698;6.314;2023-11-19T13:18:30;49.22;;;8.07;;
57828;SDS011;43657;52.698;6.314;2023-11-19T13:20:56;50.13;;;8.38;;
57828;SDS011;43657;52.698;6.314;2023-11-19T13:23:24;54.47;;;8.65;;
57828;SDS011;43657;52.698;6.314;2023-11-19T13:25:50;52.38;;;7.75;;
57828;SDS011;43657;52.698;6.314;2023-11-19T13:28:15;56.13;;;8.70;;
57828;SDS011;43657;52.698;6.314;2023-11-19T13:30:41;57.08;;;8.18;;
57828;SDS011;43657;52.698;6.314;2023-11-19T13:33:06;70.18;;;9.00;;
57828;SDS011;43657;52.698;6.314;2023-11-19T13:35:32;72.00;;;8.43;;
57828;SDS011;43657;52.698;6.314;2023-11-19T13:37:58;77.10;;;9.52;;
57828;SDS011;43657;52.698;6.314;2023-11-19T13:40:23;70.93;;;8.88;;
57828;SDS011;43657;52.698;6.314;2023-11-19T13:42:50;73.97;;;9.27;;
57828;SDS011;43657;52.698;6.314;2023-11-19T13:45:15;77.20;;;9.85;;
57828;SDS011;43657;52.698;6.314;2023-11-19T13:47:43;81.10;;;10.05;;
57828;SDS011;43657;52.698;6.314;2023-11-19T13:50:10;74.95;;;9.52;;
57828;SDS011;43657;52.698;6.314;2023-11-19T13:52:37;79.50;;;9.02;;
57828;SDS011;43657;52.698;6.314;2023-11-19T13:55:07;71.72;;;9.43;;
57828;SDS011;43657;52.698;6.314;2023-11-19T13:57:34;60.65;;;8.95;;
57828;SDS011;43657;52.698;6.314;2023-11-19T14:00:04;66.10;;;9.77;;
57828;SDS011;43657;52.698;6.314;2023-11-19T14:02:49;59.10;;;8.40;;
57828;SDS011;43657;52.698;6.314;2023-11-19T14:05:15;58.65;;;8.35;;
57828;SDS011;43657;52.698;6.314;2023-11-19T14:07:44;50.30;;;7.82;;
57828;SDS011;43657;52.698;6.314;2023-11-19T14:10:13;77.10;;;8.75;;
57828;SDS011;43657;52.698;6.314;2023-11-19T14:12:39;79.88;;;10.00;;
57828;SDS011;43657;52.698;6.314;2023-11-19T14:15:06;67.25;;;9.18;;
57828;SDS011;43657;52.698;6.314;2023-11-19T14:17:34;78.40;;;9.80;;
57828;SDS011;43657;52.698;6.314;2023-11-19T14:20:00;69.28;;;10.70;;
57828;SDS011;43657;52.698;6.314;2023-11-19T14:22:26;71.57;;;9.75;;
57828;SDS011;43657;52.698;6.314;2023-11-19T14:24:52;50.97;;;8.15;;
57828;SDS011;43657;52.698;6.314;2023-11-19T14:27:17;58.10;;;8.95;;
57828;SDS011;43657;52.698;6.314;2023-11-19T14:29:43;54.25;;;8.88;;
57828;SDS011;43657;52.698;6.314;2023-11-19T14:32:10;55.90;;;8.77;;
57828;SDS011;43657;52.698;6.314;2023-11-19T14:34:36;57.08;;;8.60;;
57828;SDS011;43657;52.698;6.314;2023-11-19T14:37:01;64.72;;;8.40;;
57828;SDS011;43657;52.698;6.314;2023-11-19T14:39:27;70.68;;;9.05;;
57828;SDS011;43657;52.698;6.314;2023-11-19T14:41:55;58.05;;;9.10;;
57828;SDS011;43657;52.698;6.314;2023-11-19T14:44:29;77.15;;;9.80;;
57828;SDS011;43657;52.698;6.314;2023-11-19T14:46:54;63.10;;;8.85;;
57828;SDS011;43657;52.698;6.314;2023-11-19T14:49:20;70.88;;;10.23;;
57828;SDS011;43657;52.698;6.314;2023-11-19T14:51:46;61.10;;;9.55;;
57828;SDS011;43657;52.698;6.314;2023-11-19T14:54:11;72.50;;;9.93;;
57828;SDS011;43657;52.698;6.314;2023-11-19T14:56:39;64.05;;;8.63;;
57828;SDS011;43657;52.698;6.314;2023-11-19T14:59:05;71.63;;;9.23;;
57828;SDS011;43657;52.698;6.314;2023-11-19T15:01:31;67.88;;;9.35;;
57828;SDS011;43657;52.698;6.314;2023-11-19T15:03:56;71.35;;;9.30;;
57828;SDS011;43657;52.698;6.314;2023-11-19T15:06:25;71.15;;;9.35;;
57828;SDS011;43657;52.698;6.314;2023-11-19T15:08:52;75.35;;;9.23;;
57828;SDS011;43657;52.698;6.314;2023-11-19T15:11:18;64.97;;;9.15;;
57828;SDS011;43657;52.698;6.314;2023-11-19T15:13:43;65.80;;;9.73;;
57828;SDS011;43657;52.698;6.314;2023-11-19T15:16:09;72.70;;;9.70;;
57828;SDS011;43657;52.698;6.314;2023-11-19T15:18:39;70.30;;;9.05;;
57828;SDS011;43657;52.698;6.314;2023-11-19T15:21:05;74.40;;;9.73;;
57828;SDS011;43657;52.698;6.314;2023-11-19T15:23:30;69.53;;;9.95;;
57828;SDS011;43657;52.698;6.314;2023-11-19T15:25:56;81.40;;;11.02;;
57828;SDS011;43657;52.698;6.314;2023-11-19T15:28:21;77.53;;;12.57;;
57828;SDS011;43657;52.698;6.314;2023-11-19T15:30:47;57.30;;;9.55;;
57828;SDS011;43657;52.698;6.314;2023-11-19T15:33:13;66.53;;;9.77;;
57828;SDS011;43657;52.698;6.314;2023-11-19T15:35:38;79.82;;;10.90;;
57828;SDS011;43657;52.698;6.314;2023-11-19T15:38:07;56.25;;;9.38;;
57828;SDS011;43657;52.698;6.314;2023-11-19T15:40:34;82.57;;;11.20;;
57828;SDS011;43657;52.698;6.314;2023-11-19T15:43:01;78.28;;;10.30;;
57828;SDS011;43657;52.698;6.314;2023-11-19T15:45:27;81.55;;;9.88;;
57828;SDS011;43657;52.698;6.314;2023-11-19T15:47:52;69.80;;;10.40;;
57828;SDS011;43657;52.698;6.314;2023-11-19T15:50:18;82.03;;;10.63;;
57828;SDS011;43657;52.698;6.314;2023-11-19T15:52:43;72.38;;;10.18;;
57828;SDS011;43657;52.698;6.314;2023-11-19T15:55:10;84.90;;;11.25;;
57828;SDS011;43657;52.698;6.314;2023-11-19T15:57:37;77.05;;;10.52;;
57828;SDS011;43657;52.698;6.314;2023-11-19T16:00:03;70.63;;;10.90;;
57828;SDS011;43657;52.698;6.314;2023-11-19T16:02:29;76.43;;;10.35;;
57828;SDS011;43657;52.698;6.314;2023-11-19T16:04:55;94.88;;;11.75;;
57828;SDS011;43657;52.698;6.314;2023-11-19T16:07:20;74.18;;;11.52;;
57828;SDS011;43657;52.698;6.314;2023-11-19T16:09:46;84.40;;;11.57;;
57828;SDS011;43657;52.698;6.314;2023-11-19T16:12:13;65.47;;;10.30;;
57828;SDS011;43657;52.698;6.314;2023-11-19T16:14:38;78.15;;;10.50;;
57828;SDS011;43657;52.698;6.314;2023-11-19T16:17:04;96.68;;;12.63;;
57828;SDS011;43657;52.698;6.314;2023-11-19T16:19:30;81.03;;;10.55;;
57828;SDS011;43657;52.698;6.314;2023-11-19T16:21:56;76.95;;;11.88;;
57828;SDS011;43657;52.698;6.314;2023-11-19T16:24:22;90.15;;;12.23;;
57828;SDS011;43657;52.698;6.314;2023-11-19T16:26:47;55.85;;;10.00;;
57828;SDS011;43657;52.698;6.314;2023-11-19T16:29:13;68.65;;;10.95;;
57828;SDS011;43657;52.698;6.314;2023-11-19T16:31:39;91.88;;;12.10;;
57828;SDS011;43657;52.698;6.314;2023-11-19T16:34:07;79.47;;;11.85;;
57828;SDS011;43657;52.698;6.314;2023-11-19T16:36:33;83.18;;;11.75;;
57828;SDS011;43657;52.698;6.314;2023-11-19T16:38:59;94.80;;;12.30;;
57828;SDS011;43657;52.698;6.314;2023-11-19T16:41:25;83.90;;;12.50;;
57828;SDS011;43657;52.698;6.314;2023-11-19T16:43:51;66.38;;;10.98;;
57828;SDS011;43657;52.698;6.314;2023-11-19T16:46:17;80.63;;;11.98;;
57828;SDS011;43657;52.698;6.314;2023-11-19T16:48:47;61.60;;;10.32;;
57828;SDS011;43657;52.698;6.314;2023-11-19T16:51:15;86.67;;;13.83;;
57828;SDS011;43657;52.698;6.314;2023-11-19T16:53:47;75.00;;;13.25;;
57828;SDS011;43657;52.698;6.314;2023-11-19T16:56:14;94.95;;;14.63;;
57828;SDS011;43657;52.698;6.314;2023-11-19T16:58:41;96.55;;;15.52;;
57828;SDS011;43657;52.698;6.314;2023-11-19T17:01:08;62.63;;;12.07;;
57828;SDS011;43657;52.698;6.314;2023-11-19T17:03:35;80.05;;;13.90;;
57828;SDS011;43657;52.698;6.314;2023-11-19T17:06:04;78.70;;;13.60;;
57828;SDS011;43657;52.698;6.314;2023-11-19T17:08:30;76.43;;;12.45;;
57828;SDS011;43657;52.698;6.314;2023-11-19T17:11:02;105.05;;;14.63;;
57828;SDS011;43657;52.698;6.314;2023-11-19T17:13:30;86.00;;;13.18;;
57828;SDS011;43657;52.698;6.314;2023-11-19T17:15:56;78.35;;;12.05;;
57828;SDS011;43657;52.698;6.314;2023-11-19T17:18:22;104.20;;;13.63;;
57828;SDS011;43657;52.698;6.314;2023-11-19T17:20:49;79.57;;;11.55;;
57828;SDS011;43657;52.698;6.314;2023-11-19T17:23:15;72.88;;;11.38;;
57828;SDS011;43657;52.698;6.314;2023-11-19T17:25:41;94.30;;;12.88;;
57828;SDS011;43657;52.698;6.314;2023-11-19T17:28:06;110.78;;;14.25;;
57828;SDS011;43657;52.698;6.314;2023-11-19T17:30:36;98.18;;;13.27;;
57828;SDS011;43657;52.698;6.314;2023-11-19T17:33:03;87.88;;;12.25;;
57828;SDS011;43657;52.698;6.314;2023-11-19T17:35:33;90.70;;;12.93;;
57828;SDS011;43657;52.698;6.314;2023-11-19T17:37:59;70.68;;;12.45;;
57828;SDS011;43657;52.698;6.314;2023-11-19T17:40:25;98.25;;;13.02;;
57828;SDS011;43657;52.698;6.314;2023-11-19T17:42:51;67.20;;;11.32;;
57828;SDS011;43657;52.698;6.314;2023-11-19T17:45:17;69.03;;;11.98;;
57828;SDS011;43657;52.698;6.314;2023-11-19T17:47:43;86.97;;;13.45;;
57828;SDS011;43657;52.698;6.314;2023-11-19T17:50:09;78.43;;;12.82;;
57828;SDS011;43657;52.698;6.314;2023-11-19T17:52:35;101.60;;;15.27;;
57828;SDS011;43657;52.698;6.314;2023-11-19T17:55:01;97.00;;;14.77;;
57828;SDS011;43657;52.698;6.314;2023-11-19T17:57:29;73.00;;;13.75;;
57828;SDS011;43657;52.698;6.314;2023-11-19T17:59:55;88.40;;;15.82;;
57828;SDS011;43657;52.698;6.314;2023-11-19T18:02:21;96.13;;;16.55;;
57828;SDS011;43657;52.698;6.314;2023-11-19T18:04:46;87.53;;;15.82;;
57828;SDS011;43657;52.698;6.314;2023-11-19T18:07:15;82.43;;;14.88;;
57828;SDS011;43657;52.698;6.314;2023-11-19T18:09:45;90.68;;;17.15;;
57828;SDS011;43657;52.698;6.314;2023-11-19T18:12:10;76.00;;;14.10;;
57828;SDS011;43657;52.698;6.314;2023-11-19T18:14:37;74.72;;;14.20;;
57828;SDS011;43657;52.698;6.314;2023-11-19T18:17:03;74.70;;;13.80;;
57828;SDS011;43657;52.698;6.314;2023-11-19T18:19:29;68.15;;;13.93;;
57828;SDS011;43657;52.698;6.314;2023-11-19T18:21:56;66.97;;;13.88;;
57828;SDS011;43657;52.698;6.314;2023-11-19T18:24:22;77.05;;;16.02;;
57828;SDS011;43657;52.698;6.314;2023-11-19T18:26:49;66.72;;;14.68;;
57828;SDS011;43657;52.698;6.314;2023-11-19T18:29:15;110.32;;;18.02;;
57828;SDS011;43657;52.698;6.314;2023-11-19T18:31:42;75.40;;;14.48;;
57828;SDS011;43657;52.698;6.314;2023-11-19T18:34:08;82.15;;;16.65;;
57828;SDS011;43657;52.698;6.314;2023-11-19T18:36:34;73.93;;;15.63;;
57828;SDS011;43657;52.698;6.314;2023-11-19T18:39:01;61.53;;;14.43;;
57828;SDS011;43657;52.698;6.314;2023-11-19T18:41:29;70.10;;;16.65;;
57828;SDS011;43657;52.698;6.314;2023-11-19T18:43:54;65.30;;;15.98;;
57828;SDS011;43657;52.698;6.314;2023-11-19T18:46:20;62.42;;;16.38;;
57828;SDS011;43657;52.698;6.314;2023-11-19T18:48:46;63.40;;;17.17;;
57828;SDS011;43657;52.698;6.314;2023-11-19T18:51:11;50.30;;;14.48;;
57828;SDS011;43657;52.698;6.314;2023-11-19T18:53:39;54.60;;;15.55;;
57828;SDS011;43657;52.698;6.314;2023-11-19T18:56:06;65.85;;;19.25;;
57828;SDS011;43657;52.698;6.314;2023-11-19T18:58:33;69.93;;;18.60;;
57828;SDS011;43657;52.698;6.314;2023-11-19T19:00:59;49.05;;;16.05;;
57828;SDS011;43657;52.698;6.314;2023-11-19T19:03:25;67.35;;;20.00;;
57828;SDS011;43657;52.698;6.314;2023-11-19T19:05:53;82.35;;;21.52;;
57828;SDS011;43657;52.698;6.314;2023-11-19T19:08:19;67.15;;;18.63;;
57828;SDS011;43657;52.698;6.314;2023-11-19T19:10:46;55.92;;;17.73;;
57828;SDS011;43657;52.698;6.314;2023-11-19T19:13:12;47.83;;;17.88;;
57828;SDS011;43657;52.698;6.314;2023-11-19T19:15:38;84.05;;;23.08;;
57828;SDS011;43657;52.698;6.314;2023-11-19T19:18:04;49.88;;;17.55;;
57828;SDS011;43657;52.698;6.314;2023-11-19T19:20:30;62.38;;;21.52;;
57828;SDS011;43657;52.698;6.314;2023-11-19T19:22:56;45.78;;;16.73;;
57828;SDS011;43657;52.698;6.314;2023-11-19T19:25:21;72.63;;;22.48;;
57828;SDS011;43657;52.698;6.314;2023-11-19T19:27:50;65.75;;;21.83;;
57828;SDS011;43657;52.698;6.314;2023-11-19T19:30:16;48.95;;;19.83;;
57828;SDS011;43657;52.698;6.314;2023-11-19T19:32:42;81.97;;;24.77;;
57828;SDS011;43657;52.698;6.314;2023-11-19T19:35:09;67.10;;;23.25;;
57828;SDS011;43657;52.698;6.314;2023-11-19T19:37:35;75.55;;;25.80;;
57828;SDS011;43657;52.698;6.314;2023-11-19T19:40:01;56.40;;;21.15;;
57828;SDS011;43657;52.698;6.314;2023-11-19T19:42:28;60.22;;;22.77;;
57828;SDS011;43657;52.698;6.314;2023-11-19T19:44:54;83.95;;;26.27;;
57828;SDS011;43657;52.698;6.314;2023-11-19T19:47:20;50.22;;;20.13;;
57828;SDS011;43657;52.698;6.314;2023-11-19T19:49:46;77.55;;;26.15;;
57828;SDS011;43657;52.698;6.314;2023-11-19T19:52:11;61.53;;;24.55;;
57828;SDS011;43657;52.698;6.314;2023-11-19T19:54:37;68.38;;;24.52;;
57828;SDS011;43657;52.698;6.314;2023-11-19T19:57:03;78.95;;;26.63;;
57828;SDS011;43657;52.698;6.314;2023-11-19T19:59:29;52.92;;;21.20;;
57828;SDS011;43657;52.698;6.314;2023-11-19T20:01:54;78.63;;;28.45;;
57828;SDS011;43657;52.698;6.314;2023-11-19T20:04:20;68.47;;;24.65;;
57828;SDS011;43657;52.698;6.314;2023-11-19T20:06:46;89.45;;;28.88;;
57828;SDS011;43657;52.698;6.314;2023-11-19T20:09:13;60.22;;;23.95;;
57828;SDS011;43657;52.698;6.314;2023-11-19T20:11:39;55.20;;;23.35;;
57828;SDS011;43657;52.698;6.314;2023-11-19T20:14:05;74.40;;;25.75;;
57828;SDS011;43657;52.698;6.314;2023-11-19T20:16:31;69.40;;;25.13;;
57828;SDS011;43657;52.698;6.314;2023-11-19T20:18:56;88.97;;;29.33;;
57828;SDS011;43657;52.698;6.314;2023-11-19T20:21:22;96.22;;;31.27;;
57828;SDS011;43657;52.698;6.314;2023-11-19T20:23:48;92.07;;;29.90;;
57828;SDS011;43657;52.698;6.314;2023-11-19T20:26:13;87.47;;;28.90;;
57828;SDS011;43657;52.698;6.314;2023-11-19T20:28:43;87.53;;;29.08;;
57828;SDS011;43657;52.698;6.314;2023-11-19T20:31:10;97.05;;;30.50;;
57828;SDS011;43657;52.698;6.314;2023-11-19T20:33:39;92.68;;;29.60;;
57828;SDS011;43657;52.698;6.314;2023-11-19T20:36:04;78.40;;;27.77;;
57828;SDS011;43657;52.698;6.314;2023-11-19T20:38:31;76.10;;;27.60;;
57828;SDS011;43657;52.698;6.314;2023-11-19T20:40:57;80.15;;;27.52;;
57828;SDS011;43657;52.698;6.314;2023-11-19T20:43:23;95.72;;;29.60;;
57828;SDS011;43657;52.698;6.314;2023-11-19T20:45:48;61.20;;;23.40;;
57828;SDS011;43657;52.698;6.314;2023-11-19T20:48:14;89.28;;;29.13;;
57828;SDS011;43657;52.698;6.314;2023-11-19T20:50:39;93.22;;;29.30;;
57828;SDS011;43657;52.698;6.314;2023-11-19T20:53:06;93.22;;;29.13;;
57828;SDS011;43657;52.698;6.314;2023-11-19T20:55:33;85.63;;;26.73;;
57828;SDS011;43657;52.698;6.314;2023-11-19T20:58:03;54.83;;;20.85;;
57828;SDS011;43657;52.698;6.314;2023-11-19T21:00:30;90.50;;;27.25;;
57828;SDS011;43657;52.698;6.314;2023-11-19T21:02:56;85.57;;;26.48;;
57828;SDS011;43657;52.698;6.314;2023-11-19T21:05:23;83.28;;;25.52;;
57828;SDS011;43657;52.698;6.314;2023-11-19T21:07:49;66.25;;;21.23;;
57828;SDS011;43657;52.698;6.314;2023-11-19T21:10:15;91.20;;;27.02;;
57828;SDS011;43657;52.698;6.314;2023-11-19T21:12:40;87.57;;;25.05;;
57828;SDS011;43657;52.698;6.314;2023-11-19T21:15:06;61.55;;;18.58;;
57828;SDS011;43657;52.698;6.314;2023-11-19T21:17:33;85.70;;;23.30;;
57828;SDS011;43657;52.698;6.314;2023-11-19T21:19:59;72.28;;;20.77;;
57828;SDS011;43657;52.698;6.314;2023-11-19T21:22:24;97.60;;;22.42;;
57828;SDS011;43657;52.698;6.314;2023-11-19T21:24:50;81.50;;;18.48;;
57828;SDS011;43657;52.698;6.314;2023-11-19T21:27:17;91.70;;;18.92;;
57828;SDS011;43657;52.698;6.314;2023-11-19T21:29:43;95.85;;;17.27;;
57828;SDS011;43657;52.698;6.314;2023-11-19T21:32:10;77.28;;;16.30;;
57828;SDS011;43657;52.698;6.314;2023-11-19T21:34:36;92.75;;;16.67;;
57828;SDS011;43657;52.698;6.314;2023-11-19T21:37:02;83.28;;;15.57;;
57828;SDS011;43657;52.698;6.314;2023-11-19T21:39:29;77.57;;;14.85;;
57828;SDS011;43657;52.698;6.314;2023-11-19T21:41:54;83.75;;;15.25;;